| time (UTC) | temp F | wind direction | speed MPH | gust MPH | rain 1hr in | rain 24hr in | rain mn in | humidity % | barometer mb |
| 20260509080052 | 48 | 110 | 0.0 | 3.0 | 0.00 | 0.00 | 0.00 | 92 | 1022.6 |
| 20260509074611 | 49 | 0 | 0.0 | 3.0 | 0.00 | 0.00 | 0.00 | 92 | 1022.7 |
| 20260509073107 | 50 | 104 | 1.0 | 3.0 | 0.00 | 0.00 | 0.00 | 91 | 1022.6 |
| 20260509071558 | 51 | 98 | 0.0 | 3.0 | 0.00 | 0.00 | 0.00 | 90 | 1022.8 |
| 20260509070059 | 52 | 0 | 0.0 | 2.0 | 0.00 | 0.00 | 0.00 | 89 | 1022.6 |
| 20260509064553 | 53 | 0 | 0.0 | 2.0 | 0.00 | 0.00 | 0.00 | 88 | 1022.6 |
| 20260509063102 | 53 | 0 | 0.0 | 2.0 | 0.00 | 0.00 | 0.00 | 88 | 1022.6 |
| 20260509061552 | 53 | 0 | 0.0 | 1.0 | 0.00 | 0.00 | 0.00 | 87 | 1022.5 |
| 20260509060109 | 54 | 0 | 0.0 | 2.0 | 0.00 | 0.00 | 0.00 | 86 | 1022.6 |
| 20260509054557 | 54 | 0 | 0.0 | 2.0 | 0.00 | 0.00 | 0.00 | 86 | 1022.6 |
| 20260509053116 | 54 | 0 | 0.0 | 2.0 | 0.00 | 0.00 | 0.00 | 85 | 1022.5 |
| 20260509051611 | 54 | 0 | 0.0 | 1.0 | 0.00 | 0.00 | 0.00 | 84 | 1022.4 |
| 20260509050058 | 55 | 0 | 0.0 | 2.0 | 0.00 | 0.00 | 0.00 | 83 | 1022.3 |
| 20260509044559 | 55 | 0 | 0.0 | 3.0 | 0.00 | 0.00 | 0.00 | 83 | 1022.2 |
| 20260509043100 | 55 | 0 | 0.0 | 3.0 | 0.00 | 0.00 | 0.00 | 82 | 1022.2 |
| 20260509041556 | 55 | 0 | 1.0 | 4.0 | 0.00 | 0.00 | 0.00 | 82 | 1022.0 |
| 20260509040108 | 55 | 105 | 0.0 | 3.0 | 0.00 | 0.00 | 0.00 | 81 | 1021.9 |
| 20260509034555 | 55 | 111 | 0.0 | 3.0 | 0.00 | 0.00 | 0.00 | 81 | 1021.8 |
| 20260509033116 | 56 | 0 | 0.0 | 3.0 | 0.00 | 0.00 | 0.00 | 80 | 1021.6 |
| 20260509031555 | 58 | 0 | 0.0 | 1.0 | 0.00 | 0.00 | 0.00 | 75 | 1021.5 |
| 20260509030056 | 59 | 0 | 0.0 | 1.0 | 0.00 | 0.00 | 0.00 | 71 | 1021.4 |
| 20260509024604 | 61 | 0 | 0.0 | 0.0 | 0.00 | 0.00 | 0.00 | 68 | 1021.3 |
| 20260509023051 | 61 | 0 | 0.0 | 0.0 | 0.00 | 0.00 | 0.00 | 63 | 1021.2 |
| 20260509021553 | 61 | 0 | 0.0 | 0.0 | 0.00 | 0.00 | 0.00 | 61 | 1021.1 |
| 20260509020105 | 62 | 0 | 0.0 | 3.0 | 0.00 | 0.00 | 0.00 | 61 | 1021.3 |
| 20260509014556 | 62 | 223 | 0.0 | 4.0 | 0.00 | 0.00 | 0.00 | 60 | 1021.2 |
| 20260509013056 | 62 | 0 | 0.0 | 5.0 | 0.00 | 0.00 | 0.00 | 61 | 1021.4 |
| 20260509011604 | 62 | 352 | 0.0 | 3.0 | 0.00 | 0.00 | 0.00 | 58 | 1021.4 |
| 20260509010059 | 63 | 0 | 0.0 | 3.0 | 0.00 | 0.00 | 0.00 | 59 | 1021.5 |
| 20260509004555 | 63 | 0 | 1.0 | 5.0 | 0.00 | 0.00 | 0.00 | 58 | 1021.6 |
| 20260509003057 | 63 | 0 | 0.0 | 4.0 | 0.00 | 0.00 | 0.00 | 61 | 1021.7 |
| 20260509001552 | 63 | 0 | 0.0 | 4.0 | 0.00 | 0.00 | 0.00 | 60 | 1021.7 |
| 20260509000055 | 62 | 360 | 0.0 | 5.0 | 0.00 | 0.00 | 0.00 | 60 | 1021.7 |
| 20260508234557 | 63 | 311 | 0.0 | 6.0 | 0.00 | 0.00 | 0.00 | 59 | 1021.7 |
| 20260508233104 | 63 | 330 | 2.0 | 6.0 | 0.00 | 0.00 | 0.00 | 59 | 1021.5 |
| 20260508231613 | 63 | 286 | 0.0 | 5.0 | 0.00 | 0.00 | 0.00 | 61 | 1021.6 |
| 20260508230057 | 63 | 0 | 1.0 | 4.0 | 0.00 | 0.00 | 0.00 | 56 | 1021.6 |
| 20260508224607 | 63 | 308 | 1.0 | 7.0 | 0.00 | 0.00 | 0.00 | 58 | 1021.6 |
| 20260508223059 | 63 | 194 | 1.0 | 10.0 | 0.00 | 0.00 | 0.00 | 54 | 1021.9 |
| 20260508221558 | 63 | 130 | 1.0 | 6.0 | 0.00 | 0.00 | 0.00 | 54 | 1021.8 |
| 20260508220106 | 63 | 300 | 2.0 | 5.0 | 0.00 | 0.00 | 0.00 | 60 | 1021.8 |
| 20260508214603 | 63 | 315 | 0.0 | 8.0 | 0.00 | 0.00 | 0.00 | 56 | 1021.9 |
| 20260508213058 | 63 | 272 | 2.0 | 10.0 | 0.00 | 0.00 | 0.00 | 56 | 1021.9 |
| 20260508211603 | 64 | 338 | 1.0 | 9.0 | 0.00 | 0.00 | 0.00 | 61 | 1021.8 |
| 20260508210054 | 64 | 223 | 3.0 | 9.0 | 0.00 | 0.00 | 0.00 | 55 | 1021.9 |
| 20260508204555 | 62 | 234 | 2.0 | 8.0 | 0.00 | 0.00 | 0.00 | 59 | 1021.8 |
| 20260508203054 | 61 | 205 | 2.0 | 9.0 | 0.00 | 0.00 | 0.00 | 61 | 1022.0 |
| 20260508201554 | 61 | 360 | 1.0 | 9.0 | 0.00 | 0.00 | 0.00 | 64 | 1021.9 |
| 20260508200055 | 60 | 88 | 3.0 | 9.0 | 0.00 | 0.00 | 0.00 | 61 | 1021.9 |
| 20260508194605 | 59 | 181 | 2.0 | 8.0 | 0.00 | 0.00 | 0.00 | 64 | 1021.8 |
| 20260508193114 | 58 | 220 | 2.0 | 8.0 | 0.00 | 0.00 | 0.00 | 66 | 1022.1 |
| 20260508191605 | 56 | 287 | 4.0 | 14.0 | 0.00 | 0.00 | 0.00 | 66 | 1022.2 |
| 20260508190113 | 57 | 171 | 3.0 | 10.0 | 0.00 | 0.00 | 0.00 | 67 | 1022.3 |
| 20260508184618 | 56 | 348 | 2.0 | 10.0 | 0.00 | 0.00 | 0.00 | 73 | 1022.2 |
| 20260508183100 | 55 | 255 | 4.0 | 12.0 | 0.00 | 0.00 | 0.00 | 72 | 1022.1 |
| 20260508181605 | 56 | 246 | 0.0 | 5.0 | 0.00 | 0.00 | 0.00 | 73 | 1021.7 |
| 20260508180106 | 55 | 215 | 3.0 | 11.0 | 0.00 | 0.00 | 0.00 | 72 | 1021.9 |
| 20260508174556 | 55 | 224 | 3.0 | 10.0 | 0.00 | 0.00 | 0.00 | 73 | 1021.6 |
| 20260508173053 | 54 | 141 | 2.0 | 10.0 | 0.00 | 0.00 | 0.00 | 76 | 1021.4 |
| 20260508171557 | 54 | 168 | 3.0 | 8.0 | 0.00 | 0.00 | 0.00 | 76 | 1021.2 |
| 20260508170058 | 53 | 181 | 3.0 | 8.0 | 0.00 | 0.00 | 0.00 | 76 | 1021.0 |
| 20260508164554 | 52 | 227 | 5.0 | 10.0 | 0.00 | 0.00 | 0.00 | 80 | 1021.0 |
| 20260508163104 | 51 | 197 | 4.0 | 9.0 | 0.00 | 0.00 | 0.00 | 80 | 1020.6 |
| 20260508161557 | 49 | 150 | 2.0 | 6.0 | 0.00 | 0.00 | 0.00 | 83 | 1020.5 |
| 20260508160054 | 48 | 0 | 1.0 | 7.0 | 0.00 | 0.00 | 0.00 | 84 | 1020.4 |
| 20260508154556 | 48 | 0 | 2.0 | 10.0 | 0.00 | 0.00 | 0.00 | 84 | 1020.7 |
| 20260508153104 | 48 | 128 | 2.0 | 8.0 | 0.00 | 0.00 | 0.00 | 84 | 1020.9 |
| 20260508151556 | 48 | 134 | 1.0 | 5.0 | 0.00 | 0.00 | 0.00 | 85 | 1021.1 |
| 20260508150052 | 48 | 230 | 2.0 | 12.0 | 0.00 | 0.00 | 0.00 | 85 | 1021.1 |
| 20260508144550 | 48 | 239 | 7.0 | 16.0 | 0.00 | 0.00 | 0.00 | 84 | 1021.3 |
| 20260508143114 | 48 | 243 | 1.0 | 9.0 | 0.00 | 0.00 | 0.00 | 85 | 1020.9 |
| 20260508141559 | 48 | 0 | 1.0 | 10.0 | 0.00 | 0.00 | 0.00 | 85 | 1020.6 |
| 20260508140110 | 49 | 0 | 0.0 | 0.0 | 0.00 | 0.00 | 0.00 | 84 | 1020.1 |
| 20260508134552 | 49 | 0 | 0.0 | 2.0 | 0.00 | 0.00 | 0.00 | 82 | 1019.8 |
| 20260508133102 | 49 | 0 | 0.0 | 9.0 | 0.00 | 0.00 | 0.00 | 80 | 1019.6 |
| 20260508131552 | 49 | 0 | 0.0 | 1.0 | 0.00 | 0.00 | 0.00 | 79 | 1019.4 |
| 20260508130054 | 49 | 0 | 0.0 | 2.0 | 0.00 | 0.00 | 0.00 | 79 | 1019.2 |
| 20260508124554 | 49 | 0 | 0.0 | 0.0 | 0.00 | 0.00 | 0.00 | 81 | 1019.0 |
| 20260508123052 | 49 | 0 | 0.0 | 0.0 | 0.00 | 0.00 | 0.00 | 80 | 1019.0 |
| 20260508121550 | 48 | 0 | 0.0 | 5.0 | 0.00 | 0.00 | 0.00 | 82 | 1018.8 |
| 20260508120108 | 47 | 0 | 0.0 | 2.0 | 0.00 | 0.00 | 0.00 | 87 | 1018.7 |
| 20260508114600 | 46 | 0 | 0.0 | 0.0 | 0.00 | 0.00 | 0.00 | 91 | 1018.5 |
| 20260508113109 | 46 | 0 | 0.0 | 0.0 | 0.00 | 0.00 | 0.00 | 91 | 1018.3 |
| 20260508111551 | 46 | 0 | 0.0 | 0.0 | 0.00 | 0.00 | 0.00 | 91 | 1018.0 |
| 20260508104552 | 46 | 0 | 0.0 | 0.0 | 0.00 | 0.00 | 0.00 | 90 | 1017.8 |
| 20260508103058 | 46 | 0 | 0.0 | 0.0 | 0.00 | 0.00 | 0.00 | 90 | 1017.6 |
| 20260508101556 | 45 | 0 | 0.0 | 1.0 | 0.00 | 0.00 | 0.00 | 91 | 1017.5 |
| 20260508100125 | 45 | 128 | 0.0 | 1.0 | 0.00 | 0.00 | 0.00 | 90 | 1017.5 |
| 20260508094631 | 44 | 0 | 0.0 | 4.0 | 0.00 | 0.00 | 0.00 | 91 | 1017.4 |
| 20260508093053 | 44 | 80 | 1.0 | 6.0 | 0.00 | 0.00 | 0.00 | 91 | 1017.2 |
| 20260508091611 | 44 | 122 | 1.0 | 4.0 | 0.00 | 0.00 | 0.00 | 92 | 1017.1 |
| 20260508090053 | 44 | 111 | 1.0 | 4.0 | 0.00 | 0.00 | 0.00 | 92 | 1017.1 |
| 20260508084556 | 44 | 104 | 0.0 | 2.0 | 0.00 | 0.00 | 0.00 | 92 | 1017.0 |
| 20260508083056 | 44 | 107 | 1.0 | 3.0 | 0.00 | 0.00 | 0.00 | 91 | 1016.9 |
| 20260508081610 | 44 | 101 | 1.0 | 3.0 | 0.00 | 0.00 | 0.00 | 91 | 1016.8 |